Search for airport 
image banner adimage banner adimage banner ad
image banner ad

15CL - Hunt Farms

Located in Merced, United States

ICAO - 15CL, IATA -

Data provided by Airmate  

General information

Coordinates: N37°20'34" W120°24'13"
Elevation is 223 feet MSL.
Magnetic variation is 15° East
View others Airports in California

Operational data

Special qualification required
Current time UTC:
Current local time:
Weather at : KMCE - Merced Rgnl/Macready Field ( 12 km )
METAR: KMCE 270453Z AUTO 27006KT 10SM CLR 25/06 A2989 RMK AO2 SLP120 T02500061
TAF: KMCE 262351Z 2700/2724 30007KT P6SM SCT250
View NOTAMs / SUP AIP / TFR affecting this airport [VIEW]
Communications frequencies: [VIEW]

Runways:

RWY identifierQFULength (ft)Width (ft)SurfaceLDA (ft)
16230050EARTH
34230050EARTH

Airport contact information

Address: Merced United States

Satellite view of 15CL